createdAt,value
2019-02-26T00:00:07.639Z,4.62
2019-02-26T00:02:41.550Z,4.60
2019-02-26T00:05:12.612Z,4.56
2019-02-26T00:07:44.356Z,4.51
2019-02-26T00:10:16.219Z,4.51
2019-02-26T00:12:47.137Z,4.47
2019-02-26T00:15:18.053Z,4.44
2019-02-26T00:17:50.770Z,4.41
2019-02-26T00:20:21.610Z,4.39
2019-02-26T00:22:53.566Z,4.40
2019-02-26T00:25:25.126Z,4.40
2019-02-26T00:27:56.902Z,4.40
2019-02-26T00:30:28.749Z,4.39
2019-02-26T00:33:02.505Z,4.39
2019-02-26T00:35:32.409Z,4.36
2019-02-26T00:38:03.305Z,4.35
2019-02-26T00:40:36.532Z,4.35
2019-02-26T00:43:06.915Z,4.32
2019-02-26T00:45:39.061Z,4.30
2019-02-26T00:48:10.092Z,4.28
2019-02-26T00:50:41.049Z,4.26
2019-02-26T00:53:11.942Z,4.23
2019-02-26T00:55:42.863Z,4.22
2019-02-26T00:58:13.774Z,4.25
2019-02-26T01:00:44.701Z,4.25
2019-02-26T01:03:15.592Z,4.25
2019-02-26T01:05:46.553Z,4.25
2019-02-26T01:08:19.623Z,4.27
2019-02-26T01:10:50.162Z,4.26
2019-02-26T01:13:22.412Z,4.27
2019-02-26T01:15:53.962Z,4.29
2019-02-26T01:18:26.779Z,4.31
2019-02-26T01:21:00.295Z,4.32
2019-02-26T01:23:31.685Z,4.30
2019-02-26T01:26:02.601Z,4.33
2019-02-26T01:28:33.568Z,4.34
2019-02-26T01:31:07.282Z,4.35
2019-02-26T01:33:38.034Z,4.38
2019-02-26T01:36:08.984Z,4.39
2019-02-26T01:38:41.652Z,4.43
2019-02-26T01:41:13.866Z,4.42
2019-02-26T01:43:45.082Z,4.43
2019-02-26T01:46:18.226Z,4.44
2019-02-26T01:48:48.613Z,4.46
2019-02-26T01:51:21.801Z,4.47
2019-02-26T01:53:53.682Z,4.47
2019-02-26T01:56:24.658Z,4.51
2019-02-26T01:58:56.925Z,4.51
2019-02-26T02:01:28.174Z,4.50
2019-02-26T02:03:59.103Z,4.53
2019-02-26T02:06:30.822Z,4.54
2019-02-26T02:09:02.605Z,4.53
2019-02-26T02:11:35.731Z,4.54
2019-02-26T02:14:08.061Z,4.55
2019-02-26T02:16:38.837Z,4.57
2019-02-26T02:19:09.786Z,4.56
2019-02-26T02:21:40.790Z,4.57
2019-02-26T02:24:15.075Z,4.55
2019-02-26T02:26:48.236Z,4.56
2019-02-26T02:29:19.192Z,4.55
2019-02-26T02:31:52.333Z,4.54
2019-02-26T02:34:27.021Z,4.55
2019-02-26T02:36:57.321Z,4.53
2019-02-26T02:39:29.218Z,4.53
2019-02-26T02:42:00.312Z,4.52
2019-02-26T02:44:31.214Z,4.52
2019-02-26T02:47:04.283Z,4.51
2019-02-26T02:49:37.461Z,4.48
2019-02-26T02:52:09.593Z,4.46
2019-02-26T02:54:41.207Z,4.42
2019-02-26T02:57:12.700Z,4.40
2019-02-26T02:59:43.594Z,4.39
2019-02-26T03:02:17.414Z,4.34
2019-02-26T03:04:47.275Z,4.34
2019-02-26T03:07:20.803Z,4.33
2019-02-26T03:09:50.862Z,4.34
2019-02-26T03:12:21.786Z,4.30
2019-02-26T03:14:52.678Z,4.32
2019-02-26T03:17:23.608Z,4.30
2019-02-26T03:19:56.017Z,4.31
2019-02-26T03:22:27.171Z,4.31
2019-02-26T03:24:59.586Z,4.32
2019-02-26T03:27:33.639Z,4.33
2019-02-26T03:30:03.998Z,4.33
2019-02-26T03:32:36.639Z,4.34
2019-02-26T03:35:10.164Z,4.31
2019-02-26T03:37:40.993Z,4.29
2019-02-26T03:40:13.693Z,4.28
2019-02-26T03:42:46.279Z,4.24
2019-02-26T03:45:23.607Z,4.22
2019-02-26T03:47:50.319Z,4.18
2019-02-26T03:50:21.223Z,4.13
2019-02-26T03:52:52.641Z,4.11
2019-02-26T03:55:23.758Z,4.08
2019-02-26T03:57:57.012Z,4.07
2019-02-26T04:00:27.276Z,4.05
2019-02-26T04:02:58.233Z,4.02
2019-02-26T04:05:29.136Z,4.01
2019-02-26T04:08:01.689Z,4.00
2019-02-26T04:10:32.775Z,4.00
2019-02-26T04:13:03.803Z,4.00
2019-02-26T04:15:36.407Z,3.98
2019-02-26T04:18:07.616Z,3.99
2019-02-26T04:20:43.445Z,3.98
2019-02-26T04:23:13.439Z,3.98
2019-02-26T04:25:54.169Z,3.94
2019-02-26T04:28:36.498Z,3.95
2019-02-26T04:31:27.567Z,3.94
2019-02-26T04:34:17.772Z,3.95
2019-02-26T04:36:54.553Z,3.95
2019-02-26T04:39:47.504Z,3.95
2019-02-26T04:42:45.500Z,3.95
2019-02-26T04:45:26.061Z,3.92
2019-02-26T04:48:00.764Z,3.89
2019-02-26T04:50:35.683Z,3.87
2019-02-26T04:53:11.040Z,3.86
2019-02-26T04:55:44.709Z,3.84
2019-02-26T04:58:15.559Z,3.83
2019-02-26T05:00:47.217Z,3.83
2019-02-26T05:03:20.186Z,3.82
2019-02-26T05:05:53.740Z,3.83
2019-02-26T05:08:23.659Z,3.81
2019-02-26T05:10:57.290Z,3.76
2019-02-26T05:13:29.317Z,3.76
2019-02-26T05:16:00.108Z,3.72
2019-02-26T05:18:33.712Z,3.72
2019-02-26T05:21:05.255Z,3.71
2019-02-26T05:23:36.859Z,3.72
2019-02-26T05:26:11.007Z,3.72
2019-02-26T05:28:41.833Z,3.71
2019-02-26T05:31:15.132Z,3.66
2019-02-26T05:33:46.813Z,3.66
2019-02-26T05:36:18.611Z,3.63
2019-02-26T05:38:51.732Z,3.61
2019-02-26T05:41:22.439Z,3.60
2019-02-26T05:43:56.055Z,3.60
2019-02-26T05:46:27.489Z,3.61
2019-02-26T05:48:58.589Z,3.62
2019-02-26T05:51:32.480Z,3.61
2019-02-26T05:54:05.693Z,3.63
2019-02-26T05:56:37.381Z,3.66
2019-02-26T05:59:09.513Z,3.70
2019-02-26T06:01:40.329Z,3.69
2019-02-26T06:04:12.297Z,3.70
2019-02-26T06:06:44.220Z,3.73
2019-02-26T06:09:15.707Z,3.81
2019-02-26T06:11:49.882Z,3.89
2019-02-26T06:14:19.266Z,4.01
2019-02-26T06:16:52.618Z,4.13
2019-02-26T06:19:25.711Z,4.29
2019-02-26T06:21:56.713Z,4.45
2019-02-26T06:24:29.579Z,4.67
2019-02-26T06:27:00.339Z,4.86
2019-02-26T06:29:32.637Z,5.05
2019-02-26T06:32:12.580Z,5.27
2019-02-26T06:34:43.480Z,5.48
2019-02-26T06:37:24.186Z,5.66
2019-02-26T06:39:57.363Z,5.88
2019-02-26T06:42:28.346Z,6.13
2019-02-26T06:45:00.361Z,6.34
2019-02-26T06:47:33.226Z,6.55
2019-02-26T06:50:07.555Z,6.78
2019-02-26T06:52:39.924Z,6.97
2019-02-26T06:55:12.004Z,7.16
2019-02-26T06:57:46.335Z,7.30
2019-02-26T07:00:21.793Z,7.47
2019-02-26T07:02:51.853Z,7.56
2019-02-26T07:05:24.492Z,7.75
2019-02-26T07:07:57.032Z,7.92
2019-02-26T07:10:29.537Z,8.10
2019-02-26T07:13:02.138Z,8.26
2019-02-26T07:15:33.416Z,8.45
2019-02-26T07:18:07.140Z,8.63
2019-02-26T07:20:39.991Z,8.81
2019-02-26T07:23:10.597Z,8.95
2019-02-26T07:25:44.090Z,9.17
2019-02-26T07:28:15.698Z,9.18
2019-02-26T07:30:47.758Z,9.32
2019-02-26T07:33:18.721Z,9.50
2019-02-26T07:35:49.599Z,9.63
2019-02-26T07:38:21.274Z,9.83
2019-02-26T07:40:54.326Z,10.01
2019-02-26T07:43:25.824Z,10.18
2019-02-26T07:45:56.732Z,10.30
2019-02-26T07:48:29.466Z,10.35
2019-02-26T07:51:00.381Z,10.53
2019-02-26T07:53:31.327Z,10.68
2019-02-26T07:56:04.514Z,10.87
2019-02-26T07:58:36.081Z,11.06
2019-02-26T08:01:07.594Z,11.18
2019-02-26T08:03:38.520Z,11.20
2019-02-26T08:06:11.644Z,11.38
2019-02-26T08:08:44.298Z,11.40
2019-02-26T08:11:14.953Z,11.45
2019-02-26T08:13:45.945Z,11.57
2019-02-26T08:16:18.365Z,11.52
2019-02-26T08:18:51.662Z,11.53
2019-02-26T08:21:24.351Z,11.55
2019-02-26T08:23:54.719Z,11.52
2019-02-26T08:26:26.746Z,11.60
2019-02-26T08:29:00.054Z,11.48
2019-02-26T08:31:30.629Z,11.31
2019-02-26T08:34:01.571Z,11.36
2019-02-26T08:36:32.457Z,11.42
2019-02-26T08:39:05.866Z,11.48
2019-02-26T08:41:36.756Z,11.45
2019-02-26T08:44:07.764Z,11.26
2019-02-26T08:46:39.789Z,11.34
2019-02-26T08:49:13.278Z,11.31
2019-02-26T08:51:43.866Z,11.36
2019-02-26T08:54:20.810Z,11.35
2019-02-26T08:56:47.395Z,11.12
2019-02-26T08:59:20.163Z,11.20
2019-02-26T09:01:51.151Z,11.30
2019-02-26T09:04:23.839Z,11.39
2019-02-26T09:06:57.067Z,11.28
2019-02-26T09:09:28.223Z,11.24
2019-02-26T09:12:01.201Z,11.18
2019-02-26T09:14:37.323Z,11.15
2019-02-26T09:17:05.455Z,11.16
2019-02-26T09:19:38.057Z,11.21
2019-02-26T09:22:11.782Z,11.21
2019-02-26T09:24:41.794Z,11.15
2019-02-26T09:27:12.683Z,11.08
2019-02-26T09:29:48.849Z,11.05
2019-02-26T09:32:18.241Z,11.10
2019-02-26T09:34:48.914Z,11.11
2019-02-26T09:37:19.811Z,11.12
2019-02-26T09:39:52.460Z,10.96
2019-02-26T09:42:25.589Z,10.92
2019-02-26T09:44:57.755Z,10.87
2019-02-26T09:47:32.844Z,10.93
2019-02-26T09:50:02.223Z,10.86
2019-02-26T09:52:33.123Z,10.85
2019-02-26T09:55:05.054Z,10.83
2019-02-26T09:57:36.016Z,10.84
2019-02-26T10:00:14.656Z,10.68
2019-02-26T10:02:47.088Z,10.71
2019-02-26T10:05:18.491Z,10.76
2019-02-26T10:07:52.298Z,10.67
2019-02-26T10:10:22.809Z,10.60
2019-02-26T10:12:56.284Z,10.50
2019-02-26T10:15:26.333Z,10.40
2019-02-26T10:17:59.553Z,10.47
2019-02-26T10:20:31.867Z,10.47
2019-02-26T10:23:05.655Z,10.49
2019-02-26T10:25:38.713Z,10.44
2019-02-26T10:28:09.617Z,10.38
2019-02-26T10:30:41.688Z,10.43
2019-02-26T10:33:12.862Z,10.42
2019-02-26T10:35:45.587Z,10.36
2019-02-26T10:38:16.478Z,10.36
2019-02-26T10:40:53.790Z,10.32
2019-02-26T10:43:20.841Z,10.43
2019-02-26T10:45:54.388Z,10.46
2019-02-26T10:48:25.171Z,10.42
2019-02-26T10:50:57.023Z,10.41
2019-02-26T10:53:27.884Z,10.34
2019-02-26T10:55:58.820Z,10.38
2019-02-26T10:58:29.722Z,10.29
2019-02-26T11:01:02.499Z,10.31
2019-02-26T11:03:37.899Z,10.35
2019-02-26T11:06:07.385Z,10.38
2019-02-26T11:08:38.520Z,10.40
2019-02-26T11:11:10.551Z,10.35
2019-02-26T11:13:50.978Z,10.32
2019-02-26T11:16:25.145Z,10.20
2019-02-26T11:18:55.524Z,10.16
2019-02-26T11:21:26.448Z,10.17
2019-02-26T11:23:58.465Z,10.09
2019-02-26T11:26:30.562Z,10.09
2019-02-26T11:29:02.559Z,10.16
2019-02-26T11:31:33.537Z,10.16
2019-02-26T11:34:09.239Z,10.13
2019-02-26T11:36:38.973Z,10.19
2019-02-26T11:39:11.933Z,10.23
2019-02-26T11:41:43.202Z,10.13
2019-02-26T11:44:19.025Z,10.13
2019-02-26T11:46:49.353Z,10.07
2019-02-26T11:49:21.659Z,10.06
2019-02-26T11:51:52.124Z,10.08
2019-02-26T11:54:23.021Z,10.11
2019-02-26T11:56:53.943Z,10.13
2019-02-26T11:59:24.853Z,10.22
2019-02-26T12:01:57.280Z,10.17
2019-02-26T12:04:28.412Z,10.11
2019-02-26T12:07:01.790Z,10.14
2019-02-26T12:12:06.217Z,10.03
2019-02-26T12:14:38.037Z,10.05
2019-02-26T12:17:09.802Z,10.06
2019-02-26T12:19:40.703Z,10.03
2019-02-26T12:22:11.639Z,10.04
2019-02-26T12:24:42.533Z,10.07
2019-02-26T12:27:18.087Z,10.02
2019-02-26T12:29:48.305Z,10.02
2019-02-26T12:32:19.973Z,10.03
2019-02-26T12:34:51.547Z,9.94
2019-02-26T12:37:22.429Z,9.90
2019-02-26T12:39:55.472Z,9.94
2019-02-26T12:42:25.984Z,9.94
2019-02-26T12:44:58.234Z,9.80
2019-02-26T12:47:29.550Z,9.80
2019-02-26T12:50:01.988Z,9.84
2019-02-26T12:52:33.042Z,9.87
2019-02-26T12:55:08.012Z,9.87
2019-02-26T12:57:37.358Z,9.82
2019-02-26T13:00:20.052Z,9.81
2019-02-26T13:02:52.315Z,9.82
2019-02-26T13:05:23.484Z,9.75
2019-02-26T13:07:54.388Z,9.75
2019-02-26T13:10:26.257Z,9.67
2019-02-26T13:15:29.743Z,9.74
2019-02-26T13:18:00.709Z,9.70
2019-02-26T13:20:31.605Z,9.69
2019-02-26T13:23:16.407Z,9.66
2019-02-26T13:25:35.115Z,9.68
2019-02-26T13:28:06.032Z,9.69
2019-02-26T13:30:36.918Z,9.72
2019-02-26T13:33:10.872Z,9.64
2019-02-26T13:35:42.791Z,9.54
2019-02-26T13:38:14.157Z,9.52
2019-02-26T13:40:45.099Z,9.51
2019-02-26T13:43:16.886Z,9.50
2019-02-26T13:45:47.779Z,9.47
2019-02-26T13:48:20.339Z,9.44
2019-02-26T13:50:51.252Z,9.50
2019-02-26T13:53:22.159Z,9.45
2019-02-26T13:55:53.050Z,9.45
2019-02-26T13:58:24.059Z,9.44
2019-02-26T14:00:54.950Z,9.42
2019-02-26T14:03:25.900Z,9.43
2019-02-26T14:05:56.790Z,9.42
2019-02-26T14:08:27.709Z,9.48
2019-02-26T14:10:58.602Z,9.51
2019-02-26T14:13:29.528Z,9.50
2019-02-26T14:16:00.411Z,9.50
2019-02-26T14:18:31.359Z,9.45
2019-02-26T14:21:02.255Z,9.42
2019-02-26T14:23:35.162Z,9.43
2019-02-26T14:26:05.971Z,9.34
2019-02-26T14:28:36.939Z,9.39
2019-02-26T14:31:07.828Z,9.41
2019-02-26T14:33:39.142Z,9.31
2019-02-26T14:36:10.043Z,9.27
2019-02-26T14:38:40.954Z,9.30
2019-02-26T14:41:11.856Z,9.32
2019-02-26T14:43:43.806Z,9.34
2019-02-26T14:46:14.691Z,9.32
2019-02-26T14:48:45.674Z,9.31
2019-02-26T14:51:17.765Z,9.31
2019-02-26T14:53:49.246Z,9.25
2019-02-26T14:56:20.249Z,9.27
2019-02-26T14:58:51.164Z,9.25
2019-02-26T15:01:24.592Z,9.16
2019-02-26T15:03:59.647Z,9.14
2019-02-26T15:06:30.356Z,9.11
2019-02-26T15:09:01.284Z,9.09
2019-02-26T15:11:32.251Z,9.03
2019-02-26T15:14:03.453Z,9.01
2019-02-26T15:16:34.354Z,8.95
2019-02-26T15:19:05.572Z,8.95
2019-02-26T15:21:36.471Z,8.92
2019-02-26T15:24:07.404Z,8.92
2019-02-26T15:26:38.319Z,8.92
2019-02-26T15:29:09.367Z,8.91
2019-02-26T15:31:40.261Z,8.83
2019-02-26T15:34:11.218Z,8.83
2019-02-26T15:36:42.106Z,8.82
2019-02-26T15:39:13.034Z,8.78
2019-02-26T15:41:43.926Z,8.78
2019-02-26T15:44:15.677Z,8.75
2019-02-26T15:46:46.666Z,8.71
2019-02-26T15:49:17.632Z,8.63
2019-02-26T15:51:48.774Z,8.54
2019-02-26T15:54:21.173Z,8.50
2019-02-26T15:56:52.365Z,8.45
2019-02-26T15:59:23.298Z,8.40
2019-02-26T16:01:55.538Z,8.32
2019-02-26T16:04:27.029Z,8.24
2019-02-26T16:06:58.202Z,8.13
2019-02-26T16:09:29.161Z,8.05
2019-02-26T16:12:00.147Z,7.97
2019-02-26T16:14:31.069Z,7.89
2019-02-26T16:17:01.975Z,7.82
2019-02-26T16:19:32.956Z,7.76
2019-02-26T16:22:03.871Z,7.69
2019-02-26T16:24:34.821Z,7.60
2019-02-26T16:27:05.734Z,7.50
2019-02-26T16:29:36.675Z,7.44
2019-02-26T16:32:07.794Z,7.37
2019-02-26T16:34:38.754Z,7.29
2019-02-26T16:37:09.726Z,7.21
2019-02-26T16:39:40.942Z,7.13
2019-02-26T16:42:12.316Z,7.02
2019-02-26T16:44:44.046Z,6.94
2019-02-26T16:47:15.302Z,6.86
2019-02-26T16:49:46.801Z,6.78
2019-02-26T16:52:17.707Z,6.69
2019-02-26T16:54:48.720Z,6.62
2019-02-26T16:57:19.638Z,6.56
2019-02-26T16:59:50.578Z,6.50
2019-02-26T17:02:21.654Z,6.41
2019-02-26T17:04:52.607Z,6.33
2019-02-26T17:07:23.510Z,6.27
2019-02-26T17:09:55.675Z,6.19
2019-02-26T17:12:29.143Z,6.13
2019-02-26T17:14:59.703Z,6.05
2019-02-26T17:17:30.608Z,5.97
2019-02-26T17:20:01.569Z,5.91
2019-02-26T17:22:32.469Z,5.82
2019-02-26T17:25:03.884Z,5.80
2019-02-26T17:27:36.595Z,5.73
2019-02-26T17:30:12.637Z,5.64
2019-02-26T17:32:43.549Z,5.58
2019-02-26T17:35:15.871Z,5.52
2019-02-26T17:37:46.777Z,5.45
2019-02-26T17:40:21.773Z,5.38
2019-02-26T17:42:54.267Z,5.35
2019-02-26T17:45:37.193Z,5.31
2019-02-26T17:48:08.842Z,5.23
2019-02-26T17:50:43.303Z,5.20
2019-02-26T17:53:13.727Z,5.17
2019-02-26T17:55:44.659Z,5.14
2019-02-26T17:58:15.567Z,5.09
2019-02-26T18:00:48.147Z,5.04
2019-02-26T18:03:19.053Z,5.01
2019-02-26T18:05:51.568Z,4.96
2019-02-26T18:08:22.637Z,4.89
2019-02-26T18:10:53.560Z,4.83
2019-02-26T18:13:24.462Z,4.81
2019-02-26T18:15:56.840Z,4.76
2019-02-26T18:18:27.983Z,4.72
2019-02-26T18:20:58.954Z,4.70
2019-02-26T18:23:29.855Z,4.67
2019-02-26T18:26:00.791Z,4.67
2019-02-26T18:28:31.703Z,4.66
2019-02-26T18:31:02.647Z,4.66
2019-02-26T18:33:35.473Z,4.63
2019-02-26T18:36:06.227Z,4.57
2019-02-26T18:38:37.154Z,4.53
2019-02-26T18:41:08.089Z,4.49
2019-02-26T18:43:38.988Z,4.47
2019-02-26T18:46:09.932Z,4.47
2019-02-26T18:48:40.838Z,4.45
2019-02-26T18:51:11.836Z,4.44
2019-02-26T18:53:44.597Z,4.41
2019-02-26T18:56:15.407Z,4.38
2019-02-26T18:58:48.754Z,4.37
2019-02-26T19:01:18.941Z,4.36
2019-02-26T19:03:49.925Z,4.37
2019-02-26T19:06:20.923Z,4.33
2019-02-26T19:08:51.848Z,4.33
2019-02-26T19:11:25.377Z,4.34
2019-02-26T19:13:55.475Z,4.34
2019-02-26T19:16:26.418Z,4.30
2019-02-26T19:18:57.329Z,4.28
2019-02-26T19:21:28.277Z,4.25
2019-02-26T19:23:59.191Z,4.21
2019-02-26T19:26:30.195Z,4.19
2019-02-26T19:29:01.110Z,4.10
2019-02-26T19:31:32.126Z,4.10
2019-02-26T19:34:03.025Z,4.08
2019-02-26T19:36:33.982Z,4.06
2019-02-26T19:39:06.276Z,4.04
2019-02-26T19:41:37.221Z,4.02
2019-02-26T19:44:08.126Z,3.98
2019-02-26T19:46:39.869Z,3.95
2019-02-26T19:49:10.783Z,3.93
2019-02-26T19:51:41.750Z,3.89
2019-02-26T19:54:12.674Z,3.87
2019-02-26T19:56:43.661Z,3.84
2019-02-26T19:59:14.563Z,3.83
2019-02-26T20:01:45.857Z,3.81
2019-02-26T20:04:16.898Z,3.74
2019-02-26T20:06:47.885Z,3.71
2019-02-26T20:09:19.033Z,3.69
2019-02-26T20:11:50.005Z,3.68
2019-02-26T20:14:21.727Z,3.65
2019-02-26T20:16:52.859Z,3.64
2019-02-26T20:19:23.787Z,3.62
2019-02-26T20:21:54.759Z,3.59
2019-02-26T20:24:25.667Z,3.56
2019-02-26T20:26:59.394Z,3.55
2019-02-26T20:29:30.308Z,3.54
2019-02-26T20:32:01.323Z,3.52
2019-02-26T20:34:32.234Z,3.49
2019-02-26T20:37:03.297Z,3.43
2019-02-26T20:39:34.210Z,3.37
2019-02-26T20:42:05.762Z,3.35
2019-02-26T20:44:42.428Z,3.33
2019-02-26T20:47:13.540Z,3.32
2019-02-26T20:49:46.349Z,3.30
2019-02-26T20:52:17.091Z,3.24
2019-02-26T20:54:47.999Z,3.22
2019-02-26T20:57:18.943Z,3.20
2019-02-26T20:59:51.892Z,3.19
2019-02-26T21:02:22.493Z,3.18
2019-02-26T21:04:53.403Z,3.16
2019-02-26T21:07:25.099Z,3.16
2019-02-26T21:10:03.538Z,3.15
2019-02-26T21:12:29.376Z,3.11
2019-02-26T21:15:00.363Z,3.10
2019-02-26T21:17:31.312Z,3.07
2019-02-26T21:20:02.215Z,3.05
2019-02-26T21:22:33.984Z,3.03
2019-02-26T21:25:08.501Z,2.99
2019-02-26T21:27:39.043Z,2.97
2019-02-26T21:30:13.178Z,2.92
2019-02-26T21:32:44.132Z,2.87
2019-02-26T21:35:15.044Z,2.86
2019-02-26T21:37:46.012Z,2.86
2019-02-26T21:40:17.530Z,2.86
2019-02-26T21:42:48.489Z,2.81
2019-02-26T21:45:19.492Z,2.79
2019-02-26T21:47:51.231Z,2.77
2019-02-26T21:50:22.970Z,2.73
2019-02-26T21:53:01.212Z,2.68
2019-02-26T21:55:26.719Z,2.63
2019-02-26T21:57:57.657Z,2.62
2019-02-26T22:00:28.576Z,2.59
2019-02-26T22:03:00.087Z,2.58
2019-02-26T22:05:31.174Z,2.56
2019-02-26T22:08:02.138Z,2.56
2019-02-26T22:10:33.056Z,2.54
2019-02-26T22:13:03.996Z,2.53
2019-02-26T22:15:36.180Z,2.54
2019-02-26T22:18:07.235Z,2.54
2019-02-26T22:20:38.156Z,2.53
2019-02-26T22:23:09.161Z,2.52
2019-02-26T22:25:40.069Z,2.50
2019-02-26T22:28:11.011Z,2.47
2019-02-26T22:30:41.925Z,2.42
2019-02-26T22:33:12.871Z,2.40
2019-02-26T22:35:43.785Z,2.37
2019-02-26T22:38:15.501Z,2.31
2019-02-26T22:40:47.030Z,2.29
2019-02-26T22:43:17.968Z,2.27
2019-02-26T22:45:48.880Z,2.26
2019-02-26T22:48:20.830Z,2.24
2019-02-26T22:50:51.737Z,2.23
2019-02-26T22:53:24.215Z,2.18
2019-02-26T22:55:55.131Z,2.15
2019-02-26T22:58:26.067Z,2.10
2019-02-26T23:01:13.395Z,2.09
2019-02-26T23:03:46.054Z,2.06
2019-02-26T23:06:17.752Z,2.06
2019-02-26T23:08:48.903Z,2.02
2019-02-26T23:11:20.473Z,2.00
